Flag for China

Past Weather in Shijiazhuang, Hebei, China — Yesterday and Last 2 Weeks

Currently: 45 °F. Passing clouds. (Weather station: Taiyuan Airport, China). See more current weather

Past Weather in Shijiazhuang — Graph

°F

Shijiazhuang Temperature Yesterday

Maximum temperature yesterday: 43 °F (at 2:00 pm)
Minimum temperature yesterday: 14 °F (at 6:00 am)
Average temperature yesterday: 29 °F

High & Low Weather Summary for the Past Weeks

 TemperatureHumidityPressure
High48 °F (Jan 14, 1:30 pm)93% (Jan 25, 6:00 am)30.60 "Hg (Jan 25, 6:00 am)
Low10 °F (Jan 18, 5:00 am)11% (Jan 14, 11:30 pm)29.74 "Hg (Jan 12, 3:00 pm)
Average31 °F38%30.12 "Hg
* Reported Jan 12 3:00 pm — Jan 27 3:30 pm, Shijiazhuang. Weather by CustomWeather, © 2021

Note: Actual official high and low records may vary slightly from our data, if they occured in-between our weather recording intervals... More about our weather records

Shijiazhuang Weather History for the Previous 24 Hours

Scroll right to see more
 ConditionsComfort  
Time TempWeatherWind HumidityBarometerVisibility
3:30 pm
Wed, Jan 27
46 °FSunny.17 mph14%30.07 "Hg10 mi
3:00 pm46 °FSunny.13 mph18%30.04 "Hg10 mi
2:30 pm46 °FClear.8 mph23%30.04 "Hg5 mi
2:00 pm46 °FClear.6 mph23%30.04 "Hg5 mi
1:30 pm45 °FClear.10 mph25%30.04 "Hg5 mi
1:00 pm43 °FClear.3 mph26%30.07 "Hg4 mi
12:30 pm41 °FClear.3 mph28%30.07 "Hg4 mi
12:00 pm39 °FClear.3 mph30%30.09 "Hg5 mi
11:30 am36 °FClear.1 mph35%30.12 "Hg4 mi
11:00 am36 °FClear.1 mph32%30.15 "Hg4 mi
10:30 am34 °FPassing clouds.3 mph41%30.15 "HgN/A
10:00 am32 °FSunny.1 mph44%30.15 "Hg10 mi
9:30 am28 °FSunny.No wind55%30.15 "Hg10 mi
9:00 am28 °FSunny.1 mph55%30.15 "Hg10 mi
8:30 am23 °FSunny.1 mph63%30.15 "Hg10 mi
8:00 am21 °FSunny.1 mph63%30.15 "Hg10 mi
7:30 am23 °FClear.1 mph58%30.15 "Hg10 mi
7:00 am21 °FPassing clouds.3 mph63%30.15 "HgN/A
6:30 am21 °FClear.1 mph68%30.15 "Hg10 mi
6:00 am23 °FClear.1 mph63%30.15 "Hg10 mi
5:30 am21 °FClear.1 mph63%30.15 "Hg10 mi
5:00 am23 °FPassing clouds.3 mph63%30.15 "HgN/A
4:30 am21 °FClear.1 mph63%30.15 "Hg10 mi
4:00 am23 °FClear.3 mph63%30.15 "Hg10 mi
3:30 am25 °FClear.1 mph59%30.18 "Hg10 mi
2:30 am27 °FClear.1 mph50%30.18 "Hg10 mi
2:00 am27 °FPassing clouds.3 mph54%30.15 "HgN/A
1:30 am28 °FClear.3 mph51%30.18 "Hg10 mi
1:00 am27 °FClear.3 mph54%30.18 "Hg10 mi
12:30 am27 °FClear.1 mph54%30.18 "Hg10 mi
12:00 am27 °FClear.3 mph50%30.21 "Hg10 mi
11:30 pm
Tue, Jan 26
28 °FClear.1 mph51%30.21 "Hg10 mi
11:00 pm28 °FClear.1 mph47%30.21 "Hg10 mi
10:30 pm30 °FClear.1 mph47%30.21 "Hg10 mi
10:00 pm30 °FClear.3 mph43%30.21 "Hg10 mi
9:30 pm34 °FClear.1 mph32%30.21 "Hg10 mi
8:30 pm32 °FClear.1 mph34%30.18 "Hg10 mi
8:00 pm30 °FClear.1 mph40%30.18 "Hg10 mi
7:30 pm30 °FClear.1 mph40%30.18 "Hg10 mi
7:00 pm30 °FClear.1 mph40%30.18 "Hg10 mi
6:30 pm34 °FClear.1 mph32%30.18 "Hg10 mi
6:00 pm36 °FClear.1 mph30%30.15 "Hg10 mi
5:30 pm39 °FSunny.No wind24%30.15 "Hg10 mi
5:00 pm41 °FSunny.1 mph22%30.15 "Hg10 mi
4:30 pm41 °FPassing clouds.6 mph22%30.15 "HgN/A
4:00 pm43 °FPassing clouds.8 mph21%30.15 "HgN/A
Weather by CustomWeather, © 2021

See weather overview